sensor_id;sensor_type;location;lat;lon;timestamp;P1;durP1;ratioP1;P2;durP2;ratioP2
16015;SDS011;8112;53.592;10.184;2022-12-15T00:00:04;27.10;;;17.67;;
16015;SDS011;8112;53.592;10.184;2022-12-15T00:05:25;25.67;;;16.43;;
16015;SDS011;8112;53.592;10.184;2022-12-15T00:10:45;21.63;;;15.60;;
16015;SDS011;8112;53.592;10.184;2022-12-15T00:16:04;24.50;;;16.27;;
16015;SDS011;8112;53.592;10.184;2022-12-15T00:21:25;25.10;;;16.37;;
16015;SDS011;8112;53.592;10.184;2022-12-15T00:26:43;24.17;;;16.67;;
16015;SDS011;8112;53.592;10.184;2022-12-15T00:32:04;23.77;;;16.27;;
16015;SDS011;8112;53.592;10.184;2022-12-15T00:37:25;22.43;;;16.17;;
16015;SDS011;8112;53.592;10.184;2022-12-15T00:42:44;23.93;;;16.00;;
16015;SDS011;8112;53.592;10.184;2022-12-15T00:47:45;27.37;;;15.93;;
16015;SDS011;8112;53.592;10.184;2022-12-15T00:52:48;26.80;;;16.53;;
16015;SDS011;8112;53.592;10.184;2022-12-15T00:58:07;23.57;;;15.47;;
16015;SDS011;8112;53.592;10.184;2022-12-15T01:03:27;27.80;;;17.20;;
16015;SDS011;8112;53.592;10.184;2022-12-15T01:08:47;25.83;;;16.43;;
16015;SDS011;8112;53.592;10.184;2022-12-15T01:14:06;25.20;;;16.47;;
16015;SDS011;8112;53.592;10.184;2022-12-15T01:19:25;24.17;;;16.07;;
16015;SDS011;8112;53.592;10.184;2022-12-15T01:24:46;24.20;;;16.30;;
16015;SDS011;8112;53.592;10.184;2022-12-15T01:29:48;24.57;;;16.47;;
16015;SDS011;8112;53.592;10.184;2022-12-15T01:34:49;25.43;;;15.13;;
16015;SDS011;8112;53.592;10.184;2022-12-15T01:39:52;21.33;;;15.07;;
16015;SDS011;8112;53.592;10.184;2022-12-15T01:50:51;27.27;;;14.90;;
16015;SDS011;8112;53.592;10.184;2022-12-15T01:56:00;26.20;;;15.93;;
16015;SDS011;8112;53.592;10.184;2022-12-15T02:01:04;20.83;;;15.10;;
16015;SDS011;8112;53.592;10.184;2022-12-15T02:06:06;23.67;;;15.57;;
16015;SDS011;8112;53.592;10.184;2022-12-15T02:11:25;23.60;;;15.60;;
16015;SDS011;8112;53.592;10.184;2022-12-15T02:16:48;24.27;;;15.50;;
16015;SDS011;8112;53.592;10.184;2022-12-15T02:22:04;24.10;;;16.07;;
16015;SDS011;8112;53.592;10.184;2022-12-15T02:27:23;25.67;;;15.93;;
16015;SDS011;8112;53.592;10.184;2022-12-15T02:32:46;26.07;;;15.87;;
16015;SDS011;8112;53.592;10.184;2022-12-15T02:37:56;23.33;;;15.80;;
16015;SDS011;8112;53.592;10.184;2022-12-15T02:42:58;27.03;;;17.03;;
16015;SDS011;8112;53.592;10.184;2022-12-15T02:48:07;24.90;;;16.63;;
16015;SDS011;8112;53.592;10.184;2022-12-15T02:53:23;27.17;;;16.63;;
16015;SDS011;8112;53.592;10.184;2022-12-15T02:58:38;24.20;;;15.63;;
16015;SDS011;8112;53.592;10.184;2022-12-15T03:03:49;25.17;;;16.30;;
16015;SDS011;8112;53.592;10.184;2022-12-15T03:08:52;23.00;;;16.23;;
16015;SDS011;8112;53.592;10.184;2022-12-15T03:13:54;22.93;;;15.67;;
16015;SDS011;8112;53.592;10.184;2022-12-15T03:18:58;21.67;;;15.37;;
16015;SDS011;8112;53.592;10.184;2022-12-15T03:24:00;25.23;;;15.10;;
16015;SDS011;8112;53.592;10.184;2022-12-15T03:29:04;24.70;;;16.03;;
16015;SDS011;8112;53.592;10.184;2022-12-15T03:34:08;24.17;;;16.17;;
16015;SDS011;8112;53.592;10.184;2022-12-15T03:39:10;24.63;;;15.30;;
16015;SDS011;8112;53.592;10.184;2022-12-15T03:44:13;24.87;;;16.33;;
16015;SDS011;8112;53.592;10.184;2022-12-15T03:49:18;23.83;;;15.73;;
16015;SDS011;8112;53.592;10.184;2022-12-15T03:54:20;23.40;;;15.47;;
16015;SDS011;8112;53.592;10.184;2022-12-15T03:59:23;24.20;;;15.10;;
16015;SDS011;8112;53.592;10.184;2022-12-15T04:04:26;21.67;;;14.43;;
16015;SDS011;8112;53.592;10.184;2022-12-15T04:09:30;27.17;;;16.53;;
16015;SDS011;8112;53.592;10.184;2022-12-15T04:14:32;23.17;;;14.77;;
16015;SDS011;8112;53.592;10.184;2022-12-15T04:19:36;22.03;;;15.13;;
16015;SDS011;8112;53.592;10.184;2022-12-15T04:24:56;22.37;;;15.07;;
16015;SDS011;8112;53.592;10.184;2022-12-15T04:30:15;23.50;;;14.90;;
16015;SDS011;8112;53.592;10.184;2022-12-15T04:35:36;24.87;;;15.53;;
16015;SDS011;8112;53.592;10.184;2022-12-15T04:40:56;20.57;;;14.27;;
16015;SDS011;8112;53.592;10.184;2022-12-15T04:46:16;20.20;;;14.30;;
16015;SDS011;8112;53.592;10.184;2022-12-15T04:51:37;25.03;;;13.97;;
16015;SDS011;8112;53.592;10.184;2022-12-15T04:56:56;22.43;;;14.23;;
16015;SDS011;8112;53.592;10.184;2022-12-15T05:02:17;22.37;;;14.90;;
16015;SDS011;8112;53.592;10.184;2022-12-15T05:07:38;19.80;;;14.00;;
16015;SDS011;8112;53.592;10.184;2022-12-15T05:13:02;25.13;;;15.30;;
16015;SDS011;8112;53.592;10.184;2022-12-15T05:18:24;23.83;;;14.40;;
16015;SDS011;8112;53.592;10.184;2022-12-15T05:23:46;21.30;;;14.93;;
16015;SDS011;8112;53.592;10.184;2022-12-15T05:29:05;23.50;;;14.80;;
16015;SDS011;8112;53.592;10.184;2022-12-15T05:34:26;24.23;;;14.13;;
16015;SDS011;8112;53.592;10.184;2022-12-15T05:39:31;21.13;;;14.93;;
16015;SDS011;8112;53.592;10.184;2022-12-15T05:44:34;23.93;;;15.43;;
16015;SDS011;8112;53.592;10.184;2022-12-15T05:49:38;21.40;;;14.63;;
16015;SDS011;8112;53.592;10.184;2022-12-15T05:54:41;22.07;;;15.47;;
16015;SDS011;8112;53.592;10.184;2022-12-15T05:59:43;23.80;;;15.50;;
16015;SDS011;8112;53.592;10.184;2022-12-15T06:04:46;25.73;;;14.97;;
16015;SDS011;8112;53.592;10.184;2022-12-15T06:09:53;21.20;;;14.77;;
16015;SDS011;8112;53.592;10.184;2022-12-15T06:14:58;28.47;;;17.73;;
16015;SDS011;8112;53.592;10.184;2022-12-15T06:20:01;27.83;;;18.27;;
16015;SDS011;8112;53.592;10.184;2022-12-15T06:25:06;29.80;;;18.17;;
16015;SDS011;8112;53.592;10.184;2022-12-15T06:30:09;27.60;;;17.27;;
16015;SDS011;8112;53.592;10.184;2022-12-15T06:35:12;25.43;;;16.37;;
16015;SDS011;8112;53.592;10.184;2022-12-15T06:40:17;23.30;;;15.67;;
16015;SDS011;8112;53.592;10.184;2022-12-15T06:45:19;24.77;;;14.97;;
16015;SDS011;8112;53.592;10.184;2022-12-15T06:50:21;21.57;;;14.43;;
16015;SDS011;8112;53.592;10.184;2022-12-15T06:55:25;25.20;;;14.90;;
16015;SDS011;8112;53.592;10.184;2022-12-15T07:00:27;21.67;;;14.37;;
16015;SDS011;8112;53.592;10.184;2022-12-15T07:05:29;22.67;;;14.50;;
16015;SDS011;8112;53.592;10.184;2022-12-15T07:10:32;20.17;;;14.20;;
16015;SDS011;8112;53.592;10.184;2022-12-15T07:15:34;21.50;;;15.73;;
16015;SDS011;8112;53.592;10.184;2022-12-15T07:20:38;21.23;;;13.73;;
16015;SDS011;8112;53.592;10.184;2022-12-15T07:25:41;19.63;;;14.63;;
16015;SDS011;8112;53.592;10.184;2022-12-15T07:30:43;22.97;;;15.10;;
16015;SDS011;8112;53.592;10.184;2022-12-15T07:35:51;23.53;;;15.10;;
16015;SDS011;8112;53.592;10.184;2022-12-15T07:40:58;22.20;;;14.07;;
16015;SDS011;8112;53.592;10.184;2022-12-15T07:46:00;22.80;;;14.40;;
16015;SDS011;8112;53.592;10.184;2022-12-15T07:51:04;22.80;;;15.27;;
16015;SDS011;8112;53.592;10.184;2022-12-15T07:56:09;20.63;;;14.60;;
16015;SDS011;8112;53.592;10.184;2022-12-15T08:01:17;23.63;;;15.43;;
16015;SDS011;8112;53.592;10.184;2022-12-15T08:06:20;22.47;;;15.90;;
16015;SDS011;8112;53.592;10.184;2022-12-15T08:11:25;23.57;;;15.47;;
16015;SDS011;8112;53.592;10.184;2022-12-15T08:16:28;24.83;;;15.37;;
16015;SDS011;8112;53.592;10.184;2022-12-15T08:21:30;21.43;;;14.67;;
16015;SDS011;8112;53.592;10.184;2022-12-15T08:26:36;29.23;;;16.43;;
16015;SDS011;8112;53.592;10.184;2022-12-15T08:31:40;23.47;;;15.47;;
16015;SDS011;8112;53.592;10.184;2022-12-15T08:36:42;26.20;;;16.93;;
16015;SDS011;8112;53.592;10.184;2022-12-15T08:41:46;25.10;;;16.67;;
16015;SDS011;8112;53.592;10.184;2022-12-15T08:46:49;26.40;;;16.30;;
16015;SDS011;8112;53.592;10.184;2022-12-15T08:51:52;22.73;;;17.20;;
16015;SDS011;8112;53.592;10.184;2022-12-15T08:56:59;29.17;;;15.97;;
16015;SDS011;8112;53.592;10.184;2022-12-15T09:02:01;21.13;;;16.00;;
16015;SDS011;8112;53.592;10.184;2022-12-15T09:07:03;23.73;;;15.67;;
16015;SDS011;8112;53.592;10.184;2022-12-15T09:12:08;23.23;;;16.07;;
16015;SDS011;8112;53.592;10.184;2022-12-15T09:17:13;25.10;;;15.30;;
16015;SDS011;8112;53.592;10.184;2022-12-15T09:22:20;21.33;;;15.60;;
16015;SDS011;8112;53.592;10.184;2022-12-15T09:27:25;22.33;;;15.23;;
16015;SDS011;8112;53.592;10.184;2022-12-15T09:32:29;24.30;;;16.20;;
16015;SDS011;8112;53.592;10.184;2022-12-15T09:37:32;22.30;;;16.03;;
16015;SDS011;8112;53.592;10.184;2022-12-15T09:42:35;22.93;;;15.47;;
16015;SDS011;8112;53.592;10.184;2022-12-15T09:47:39;22.23;;;15.80;;
16015;SDS011;8112;53.592;10.184;2022-12-15T09:52:47;26.53;;;16.67;;
16015;SDS011;8112;53.592;10.184;2022-12-15T09:57:52;21.07;;;14.67;;
16015;SDS011;8112;53.592;10.184;2022-12-15T10:08:34;21.33;;;14.33;;
16015;SDS011;8112;53.592;10.184;2022-12-15T10:13:43;21.80;;;15.37;;
16015;SDS011;8112;53.592;10.184;2022-12-15T10:18:53;22.43;;;15.27;;
16015;SDS011;8112;53.592;10.184;2022-12-15T10:24:11;18.60;;;13.80;;
16015;SDS011;8112;53.592;10.184;2022-12-15T10:29:27;20.03;;;14.67;;
16015;SDS011;8112;53.592;10.184;2022-12-15T10:34:36;21.27;;;15.23;;
16015;SDS011;8112;53.592;10.184;2022-12-15T10:39:40;23.53;;;15.93;;
16015;SDS011;8112;53.592;10.184;2022-12-15T10:44:46;19.90;;;15.07;;
16015;SDS011;8112;53.592;10.184;2022-12-15T10:49:50;19.57;;;14.83;;
16015;SDS011;8112;53.592;10.184;2022-12-15T10:54:53;24.57;;;15.13;;
16015;SDS011;8112;53.592;10.184;2022-12-15T11:00:01;20.37;;;14.23;;
16015;SDS011;8112;53.592;10.184;2022-12-15T11:05:27;21.93;;;15.20;;
16015;SDS011;8112;53.592;10.184;2022-12-15T11:10:31;23.63;;;15.43;;
16015;SDS011;8112;53.592;10.184;2022-12-15T11:15:49;21.60;;;14.80;;
16015;SDS011;8112;53.592;10.184;2022-12-15T11:20:55;21.33;;;15.53;;
16015;SDS011;8112;53.592;10.184;2022-12-15T11:26:04;20.53;;;14.67;;
16015;SDS011;8112;53.592;10.184;2022-12-15T11:31:21;20.53;;;15.53;;
16015;SDS011;8112;53.592;10.184;2022-12-15T11:36:37;22.03;;;15.70;;
16015;SDS011;8112;53.592;10.184;2022-12-15T11:41:49;19.93;;;14.00;;
16015;SDS011;8112;53.592;10.184;2022-12-15T11:47:02;19.67;;;14.70;;
16015;SDS011;8112;53.592;10.184;2022-12-15T11:52:15;17.67;;;13.13;;
16015;SDS011;8112;53.592;10.184;2022-12-15T11:57:38;17.50;;;13.33;;
16015;SDS011;8112;53.592;10.184;2022-12-15T12:08:30;18.77;;;15.03;;
16015;SDS011;8112;53.592;10.184;2022-12-15T12:14:11;16.90;;;12.73;;
16015;SDS011;8112;53.592;10.184;2022-12-15T12:24:47;18.77;;;13.53;;
16015;SDS011;8112;53.592;10.184;2022-12-15T12:30:11;18.90;;;13.03;;
16015;SDS011;8112;53.592;10.184;2022-12-15T12:35:19;16.83;;;13.53;;
16015;SDS011;8112;53.592;10.184;2022-12-15T12:40:30;19.07;;;13.57;;
16015;SDS011;8112;53.592;10.184;2022-12-15T12:45:47;18.63;;;13.30;;
16015;SDS011;8112;53.592;10.184;2022-12-15T12:51:06;14.73;;;11.77;;
16015;SDS011;8112;53.592;10.184;2022-12-15T12:56:34;16.10;;;13.00;;
16015;SDS011;8112;53.592;10.184;2022-12-15T13:01:42;17.43;;;13.07;;
16015;SDS011;8112;53.592;10.184;2022-12-15T13:06:59;17.53;;;11.93;;
16015;SDS011;8112;53.592;10.184;2022-12-15T13:12:04;17.20;;;11.50;;
16015;SDS011;8112;53.592;10.184;2022-12-15T13:17:37;13.63;;;11.53;;
16015;SDS011;8112;53.592;10.184;2022-12-15T13:22:44;15.77;;;12.60;;
16015;SDS011;8112;53.592;10.184;2022-12-15T13:27:49;14.93;;;11.90;;
16015;SDS011;8112;53.592;10.184;2022-12-15T13:33:11;17.23;;;11.90;;
16015;SDS011;8112;53.592;10.184;2022-12-15T13:38:17;15.17;;;11.50;;
16015;SDS011;8112;53.592;10.184;2022-12-15T13:43:39;16.07;;;11.73;;
16015;SDS011;8112;53.592;10.184;2022-12-15T13:48:50;17.50;;;11.37;;
16015;SDS011;8112;53.592;10.184;2022-12-15T13:54:01;15.27;;;12.10;;
16015;SDS011;8112;53.592;10.184;2022-12-15T13:59:19;16.17;;;11.63;;
16015;SDS011;8112;53.592;10.184;2022-12-15T14:04:27;16.87;;;12.03;;
16015;SDS011;8112;53.592;10.184;2022-12-15T14:09:31;17.67;;;11.53;;
16015;SDS011;8112;53.592;10.184;2022-12-15T14:14:36;16.13;;;11.60;;
16015;SDS011;8112;53.592;10.184;2022-12-15T14:19:44;13.67;;;11.07;;
16015;SDS011;8112;53.592;10.184;2022-12-15T14:24:49;12.27;;;10.60;;
16015;SDS011;8112;53.592;10.184;2022-12-15T14:30:07;16.10;;;11.10;;
16015;SDS011;8112;53.592;10.184;2022-12-15T14:35:35;15.50;;;10.07;;
16015;SDS011;8112;53.592;10.184;2022-12-15T14:40:42;15.47;;;11.30;;
16015;SDS011;8112;53.592;10.184;2022-12-15T14:45:46;15.63;;;11.10;;
16015;SDS011;8112;53.592;10.184;2022-12-15T14:50:52;16.17;;;10.90;;
16015;SDS011;8112;53.592;10.184;2022-12-15T14:55:57;16.00;;;11.07;;
16015;SDS011;8112;53.592;10.184;2022-12-15T15:01:20;18.27;;;11.17;;
16015;SDS011;8112;53.592;10.184;2022-12-15T15:06:26;14.80;;;10.73;;
16015;SDS011;8112;53.592;10.184;2022-12-15T15:11:38;15.60;;;11.20;;
16015;SDS011;8112;53.592;10.184;2022-12-15T15:16:42;17.37;;;12.87;;
16015;SDS011;8112;53.592;10.184;2022-12-15T15:21:46;16.40;;;12.17;;
16015;SDS011;8112;53.592;10.184;2022-12-15T15:26:51;16.27;;;11.50;;
16015;SDS011;8112;53.592;10.184;2022-12-15T15:32:03;15.10;;;10.47;;
16015;SDS011;8112;53.592;10.184;2022-12-15T15:37:12;15.90;;;10.60;;
16015;SDS011;8112;53.592;10.184;2022-12-15T15:42:21;16.50;;;10.93;;
16015;SDS011;8112;53.592;10.184;2022-12-15T15:47:24;15.90;;;10.63;;
16015;SDS011;8112;53.592;10.184;2022-12-15T15:52:27;15.17;;;11.17;;
16015;SDS011;8112;53.592;10.184;2022-12-15T15:57:34;14.20;;;10.30;;
16015;SDS011;8112;53.592;10.184;2022-12-15T16:02:38;14.30;;;10.60;;
16015;SDS011;8112;53.592;10.184;2022-12-15T16:07:42;14.80;;;9.80;;
16015;SDS011;8112;53.592;10.184;2022-12-15T16:12:50;16.23;;;10.17;;
16015;SDS011;8112;53.592;10.184;2022-12-15T16:17:54;11.77;;;9.30;;
16015;SDS011;8112;53.592;10.184;2022-12-15T16:23:01;15.17;;;10.07;;
16015;SDS011;8112;53.592;10.184;2022-12-15T16:28:11;14.67;;;9.80;;
16015;SDS011;8112;53.592;10.184;2022-12-15T16:33:21;12.73;;;9.57;;
16015;SDS011;8112;53.592;10.184;2022-12-15T16:38:25;15.30;;;9.90;;
16015;SDS011;8112;53.592;10.184;2022-12-15T16:43:31;16.90;;;11.70;;
16015;SDS011;8112;53.592;10.184;2022-12-15T16:48:34;17.03;;;12.27;;
16015;SDS011;8112;53.592;10.184;2022-12-15T16:53:41;18.53;;;12.07;;
16015;SDS011;8112;53.592;10.184;2022-12-15T16:58:48;17.27;;;12.33;;
16015;SDS011;8112;53.592;10.184;2022-12-15T17:03:50;16.97;;;12.07;;
16015;SDS011;8112;53.592;10.184;2022-12-15T17:08:53;20.57;;;12.63;;
16015;SDS011;8112;53.592;10.184;2022-12-15T17:14:03;18.27;;;11.83;;
16015;SDS011;8112;53.592;10.184;2022-12-15T17:19:06;18.23;;;12.33;;
16015;SDS011;8112;53.592;10.184;2022-12-15T17:24:10;19.80;;;12.60;;
16015;SDS011;8112;53.592;10.184;2022-12-15T17:29:18;18.67;;;14.07;;
16015;SDS011;8112;53.592;10.184;2022-12-15T17:34:24;21.13;;;13.50;;
16015;SDS011;8112;53.592;10.184;2022-12-15T17:39:29;16.73;;;12.97;;
16015;SDS011;8112;53.592;10.184;2022-12-15T17:44:35;21.77;;;14.17;;
16015;SDS011;8112;53.592;10.184;2022-12-15T17:49:39;20.27;;;13.97;;
16015;SDS011;8112;53.592;10.184;2022-12-15T17:54:41;20.03;;;13.97;;
16015;SDS011;8112;53.592;10.184;2022-12-15T17:59:45;19.00;;;13.77;;
16015;SDS011;8112;53.592;10.184;2022-12-15T18:04:47;21.03;;;14.33;;
16015;SDS011;8112;53.592;10.184;2022-12-15T18:09:49;22.57;;;15.67;;
16015;SDS011;8112;53.592;10.184;2022-12-15T18:14:55;18.20;;;14.50;;
16015;SDS011;8112;53.592;10.184;2022-12-15T18:19:58;21.83;;;14.90;;
16015;SDS011;8112;53.592;10.184;2022-12-15T18:25:05;21.10;;;15.47;;
16015;SDS011;8112;53.592;10.184;2022-12-15T18:30:18;19.13;;;14.80;;
16015;SDS011;8112;53.592;10.184;2022-12-15T18:35:25;20.13;;;14.00;;
16015;SDS011;8112;53.592;10.184;2022-12-15T18:40:31;21.33;;;14.53;;
16015;SDS011;8112;53.592;10.184;2022-12-15T18:45:36;21.93;;;15.00;;
16015;SDS011;8112;53.592;10.184;2022-12-15T18:50:38;21.57;;;14.73;;
16015;SDS011;8112;53.592;10.184;2022-12-15T18:55:40;21.97;;;15.70;;
16015;SDS011;8112;53.592;10.184;2022-12-15T19:00:44;22.93;;;15.30;;
16015;SDS011;8112;53.592;10.184;2022-12-15T19:05:46;23.27;;;16.33;;
16015;SDS011;8112;53.592;10.184;2022-12-15T19:10:50;22.13;;;16.17;;
16015;SDS011;8112;53.592;10.184;2022-12-15T19:15:56;25.13;;;17.07;;
16015;SDS011;8112;53.592;10.184;2022-12-15T19:21:00;23.23;;;15.87;;
16015;SDS011;8112;53.592;10.184;2022-12-15T19:26:42;23.97;;;15.90;;
16015;SDS011;8112;53.592;10.184;2022-12-15T19:31:48;21.80;;;15.93;;
16015;SDS011;8112;53.592;10.184;2022-12-15T19:36:51;23.67;;;16.67;;
16015;SDS011;8112;53.592;10.184;2022-12-15T19:41:53;24.50;;;16.47;;
16015;SDS011;8112;53.592;10.184;2022-12-15T19:46:57;22.13;;;16.53;;
16015;SDS011;8112;53.592;10.184;2022-12-15T19:52:00;24.47;;;16.93;;
16015;SDS011;8112;53.592;10.184;2022-12-15T19:57:04;22.33;;;16.77;;
16015;SDS011;8112;53.592;10.184;2022-12-15T20:02:13;23.83;;;17.97;;
16015;SDS011;8112;53.592;10.184;2022-12-15T20:07:17;24.43;;;16.03;;
16015;SDS011;8112;53.592;10.184;2022-12-15T20:12:22;25.50;;;17.60;;
16015;SDS011;8112;53.592;10.184;2022-12-15T20:22:58;22.40;;;15.70;;
16015;SDS011;8112;53.592;10.184;2022-12-15T20:28:05;23.63;;;16.90;;
16015;SDS011;8112;53.592;10.184;2022-12-15T20:33:17;23.20;;;17.20;;
16015;SDS011;8112;53.592;10.184;2022-12-15T20:38:22;23.33;;;17.60;;
16015;SDS011;8112;53.592;10.184;2022-12-15T20:43:27;25.27;;;17.80;;
16015;SDS011;8112;53.592;10.184;2022-12-15T20:48:34;21.67;;;16.37;;
16015;SDS011;8112;53.592;10.184;2022-12-15T20:53:37;20.73;;;15.60;;
16015;SDS011;8112;53.592;10.184;2022-12-15T20:58:40;20.13;;;14.87;;
16015;SDS011;8112;53.592;10.184;2022-12-15T21:03:44;22.57;;;15.57;;
16015;SDS011;8112;53.592;10.184;2022-12-15T21:08:46;21.50;;;15.57;;
16015;SDS011;8112;53.592;10.184;2022-12-15T21:13:49;24.07;;;17.13;;
16015;SDS011;8112;53.592;10.184;2022-12-15T21:18:54;24.10;;;16.77;;
16015;SDS011;8112;53.592;10.184;2022-12-15T21:23:56;21.47;;;15.40;;
16015;SDS011;8112;53.592;10.184;2022-12-15T21:29:01;19.27;;;15.17;;
16015;SDS011;8112;53.592;10.184;2022-12-15T21:34:08;23.30;;;16.87;;
16015;SDS011;8112;53.592;10.184;2022-12-15T21:39:11;22.60;;;16.33;;
16015;SDS011;8112;53.592;10.184;2022-12-15T21:44:23;24.43;;;16.90;;
16015;SDS011;8112;53.592;10.184;2022-12-15T21:49:29;24.20;;;16.80;;
16015;SDS011;8112;53.592;10.184;2022-12-15T21:54:32;24.60;;;17.83;;
16015;SDS011;8112;53.592;10.184;2022-12-15T21:59:36;30.07;;;20.17;;
16015;SDS011;8112;53.592;10.184;2022-12-15T22:04:41;30.80;;;20.80;;
16015;SDS011;8112;53.592;10.184;2022-12-15T22:09:43;25.10;;;17.13;;
16015;SDS011;8112;53.592;10.184;2022-12-15T22:14:46;23.27;;;16.93;;
16015;SDS011;8112;53.592;10.184;2022-12-15T22:19:50;25.90;;;18.03;;
16015;SDS011;8112;53.592;10.184;2022-12-15T22:24:52;23.10;;;17.00;;
16015;SDS011;8112;53.592;10.184;2022-12-15T22:29:54;22.73;;;17.33;;
16015;SDS011;8112;53.592;10.184;2022-12-15T22:34:58;25.13;;;19.67;;
16015;SDS011;8112;53.592;10.184;2022-12-15T22:40:00;25.37;;;18.33;;
16015;SDS011;8112;53.592;10.184;2022-12-15T22:45:03;24.40;;;18.43;;
16015;SDS011;8112;53.592;10.184;2022-12-15T22:50:11;24.27;;;18.13;;
16015;SDS011;8112;53.592;10.184;2022-12-15T22:55:19;23.80;;;17.97;;
16015;SDS011;8112;53.592;10.184;2022-12-15T23:00:21;23.97;;;17.50;;
16015;SDS011;8112;53.592;10.184;2022-12-15T23:05:25;27.87;;;18.27;;
16015;SDS011;8112;53.592;10.184;2022-12-15T23:10:27;24.50;;;17.37;;
16015;SDS011;8112;53.592;10.184;2022-12-15T23:15:47;23.33;;;17.97;;
16015;SDS011;8112;53.592;10.184;2022-12-15T23:21:09;22.87;;;16.53;;
16015;SDS011;8112;53.592;10.184;2022-12-15T23:26:12;25.70;;;18.00;;
16015;SDS011;8112;53.592;10.184;2022-12-15T23:31:15;26.97;;;18.70;;
16015;SDS011;8112;53.592;10.184;2022-12-15T23:36:19;24.27;;;17.67;;
16015;SDS011;8112;53.592;10.184;2022-12-15T23:41:21;25.07;;;17.73;;
16015;SDS011;8112;53.592;10.184;2022-12-15T23:46:22;23.60;;;17.87;;
16015;SDS011;8112;53.592;10.184;2022-12-15T23:51:26;23.40;;;17.03;;
16015;SDS011;8112;53.592;10.184;2022-12-15T23:56:28;22.17;;;16.83;;
